createdAt,value
2022-09-07T00:00:21.580Z,95492
2022-09-07T00:01:30.269Z,95496
2022-09-07T00:02:38.915Z,95492
2022-09-07T00:03:48.635Z,95494
2022-09-07T00:04:55.283Z,95493
2022-09-07T00:06:03.945Z,95492
2022-09-07T00:07:13.607Z,95494
2022-09-07T00:08:21.290Z,95492
2022-09-07T00:09:30.972Z,95490
2022-09-07T00:10:39.664Z,95489
2022-09-07T00:11:48.319Z,95491
2022-09-07T00:12:57.987Z,95489
2022-09-07T00:14:05.678Z,95488
2022-09-07T00:15:15.359Z,95489
2022-09-07T00:16:25.087Z,95485
2022-09-07T00:17:33.690Z,95491
2022-09-07T00:18:45.706Z,95491
2022-09-07T00:19:52.082Z,95490
2022-09-07T00:21:00.878Z,95492
2022-09-07T00:22:10.578Z,95494
2022-09-07T00:23:20.317Z,95498
2022-09-07T00:24:28.976Z,95498
2022-09-07T00:25:38.694Z,95499
2022-09-07T00:26:48.400Z,95495
2022-09-07T00:27:57.069Z,95495
2022-09-07T00:29:06.786Z,95497
2022-09-07T00:30:16.447Z,95502
2022-09-07T00:31:26.190Z,95501
2022-09-07T00:32:33.790Z,95501
2022-09-07T00:33:43.449Z,95500
2022-09-07T00:34:53.116Z,95497
2022-09-07T00:36:01.776Z,95497
2022-09-07T00:37:10.435Z,95498
2022-09-07T00:38:19.211Z,95497
2022-09-07T00:39:27.867Z,95495
2022-09-07T00:40:37.515Z,95492
2022-09-07T00:41:45.175Z,95497
2022-09-07T00:42:53.815Z,95494
2022-09-07T00:44:03.507Z,95496
2022-09-07T00:45:12.163Z,95492
2022-09-07T00:46:20.898Z,95496
2022-09-07T00:47:30.478Z,95499
2022-09-07T00:48:39.140Z,95498
2022-09-07T00:49:48.821Z,95501
2022-09-07T00:50:56.470Z,95498
2022-09-07T00:52:05.130Z,95497
2022-09-07T00:53:14.837Z,95494
2022-09-07T00:54:22.537Z,95493
2022-09-07T00:55:31.205Z,95488
2022-09-07T00:56:39.881Z,95494
2022-09-07T00:57:48.538Z,95498
2022-09-07T00:58:58.206Z,95500
2022-09-07T01:00:07.864Z,95501
2022-09-07T01:01:16.600Z,95505
2022-09-07T01:02:26.400Z,95506
2022-09-07T01:03:33.839Z,95502
2022-09-07T01:04:43.515Z,95496
2022-09-07T01:05:52.165Z,95495
2022-09-07T01:07:00.847Z,95497
2022-09-07T01:08:10.499Z,95489
2022-09-07T01:09:19.157Z,95490
2022-09-07T01:10:27.798Z,95491
2022-09-07T01:11:37.445Z,95495
2022-09-07T01:12:45.126Z,95490
2022-09-07T01:13:53.775Z,95493
2022-09-07T01:15:02.431Z,95495
2022-09-07T01:16:11.163Z,95494
2022-09-07T01:17:20.721Z,95496
2022-09-07T01:18:27.393Z,95498
2022-09-07T01:19:36.030Z,95499
2022-09-07T01:20:45.683Z,95495
2022-09-07T01:21:53.338Z,95492
2022-09-07T01:23:03.050Z,95486
2022-09-07T01:24:11.826Z,95489
2022-09-07T01:25:20.499Z,95492
2022-09-07T01:26:30.158Z,95488
2022-09-07T01:27:38.802Z,95487
2022-09-07T01:28:47.455Z,95487
2022-09-07T01:29:57.125Z,95489
2022-09-07T01:31:04.816Z,95490
2022-09-07T01:32:13.418Z,95493
2022-09-07T01:33:22.063Z,95492
2022-09-07T01:34:30.696Z,95492
2022-09-07T01:35:40.406Z,95501
2022-09-07T01:36:48.050Z,95495
2022-09-07T01:37:57.697Z,95501
2022-09-07T01:39:07.345Z,95497
2022-09-07T01:40:14.997Z,95503
2022-09-07T01:41:23.796Z,95499
2022-09-07T01:42:33.454Z,95503
2022-09-07T01:43:43.098Z,95508
2022-09-07T01:44:52.758Z,95506
2022-09-07T01:46:00.438Z,95506
2022-09-07T01:47:09.059Z,95508
2022-09-07T01:48:17.706Z,95506
2022-09-07T01:49:27.339Z,95501
2022-09-07T01:50:36.992Z,95500
2022-09-07T01:51:44.631Z,95500
2022-09-07T01:52:53.304Z,95500
2022-09-07T01:54:01.941Z,95498
2022-09-07T01:55:11.603Z,95499
2022-09-07T01:56:21.254Z,95496
2022-09-07T01:57:28.897Z,95495
2022-09-07T01:58:37.583Z,95500
2022-09-07T01:59:47.231Z,95503
2022-09-07T02:00:54.873Z,95499
2022-09-07T02:02:03.625Z,95496
2022-09-07T02:03:12.235Z,95494
2022-09-07T02:04:20.834Z,95493
2022-09-07T02:05:30.493Z,95495
2022-09-07T02:06:40.147Z,95492
2022-09-07T02:07:48.780Z,95495
2022-09-07T02:08:58.434Z,95494
2022-09-07T02:10:06.094Z,95501
2022-09-07T02:11:14.754Z,95501
2022-09-07T02:12:23.388Z,95506
2022-09-07T02:13:32.028Z,95501
2022-09-07T02:14:41.964Z,95508
2022-09-07T02:15:51.650Z,95506
2022-09-07T02:17:00.246Z,95511
2022-09-07T02:18:09.920Z,95512
2022-09-07T02:19:18.564Z,95511
2022-09-07T02:20:27.204Z,95512
2022-09-07T02:21:36.878Z,95506
2022-09-07T02:22:46.539Z,95505
2022-09-07T02:23:56.192Z,95509
2022-09-07T02:25:03.828Z,95508
2022-09-07T02:26:13.466Z,95508
2022-09-07T02:27:23.132Z,95506
2022-09-07T02:28:31.914Z,95504
2022-09-07T02:29:40.422Z,95506
2022-09-07T02:30:49.097Z,95503
2022-09-07T02:31:58.786Z,95502
2022-09-07T02:33:08.461Z,95501
2022-09-07T02:34:17.105Z,95494
2022-09-07T02:35:26.757Z,95496
2022-09-07T02:36:36.442Z,95497
2022-09-07T02:37:44.073Z,95497
2022-09-07T02:38:52.741Z,95495
2022-09-07T02:40:02.475Z,95494
2022-09-07T02:41:11.018Z,95492
2022-09-07T02:42:20.717Z,95490
2022-09-07T02:43:29.366Z,95488
2022-09-07T02:44:38.137Z,95488
2022-09-07T02:45:47.839Z,95484
2022-09-07T02:46:55.425Z,95485
2022-09-07T02:48:04.066Z,95479
2022-09-07T02:49:12.740Z,95485
2022-09-07T02:50:20.416Z,95478
2022-09-07T02:51:30.060Z,95479
2022-09-07T02:52:37.697Z,95479
2022-09-07T02:53:46.330Z,95482
2022-09-07T02:54:55.980Z,95482
2022-09-07T02:56:03.648Z,95482
2022-09-07T02:57:12.281Z,95485
2022-09-07T02:58:20.921Z,95486
2022-09-07T02:59:31.556Z,95480
2022-09-07T03:00:41.211Z,95478
2022-09-07T03:01:48.925Z,95487
2022-09-07T03:02:57.559Z,95489
2022-09-07T03:04:07.169Z,95488
2022-09-07T03:05:14.822Z,95489
2022-09-07T03:06:23.458Z,95483
2022-09-07T03:07:35.652Z,95488
2022-09-07T03:08:41.757Z,95490
2022-09-07T03:09:51.408Z,95491
2022-09-07T03:11:01.062Z,95487
2022-09-07T03:12:09.695Z,95485
2022-09-07T03:13:19.384Z,95482
2022-09-07T03:14:27.031Z,95482
2022-09-07T03:15:36.719Z,95477
2022-09-07T03:16:45.324Z,95482
2022-09-07T03:17:53.966Z,95477
2022-09-07T03:19:03.635Z,95482
2022-09-07T03:20:11.274Z,95477
2022-09-07T03:21:19.931Z,95479
2022-09-07T03:22:29.582Z,95472
2022-09-07T03:23:37.219Z,95473
2022-09-07T03:24:45.882Z,95472
2022-09-07T03:25:54.534Z,95464
2022-09-07T03:27:03.194Z,95463
2022-09-07T03:28:12.845Z,95462
2022-09-07T03:29:20.485Z,95463
2022-09-07T03:30:29.188Z,95473
2022-09-07T03:31:38.810Z,95474
2022-09-07T03:32:47.460Z,95481
2022-09-07T03:33:57.111Z,95480
2022-09-07T03:35:06.767Z,95487
2022-09-07T03:36:16.425Z,95493
2022-09-07T03:37:26.079Z,95499
2022-09-07T03:38:34.731Z,95500
2022-09-07T03:39:43.413Z,95500
2022-09-07T03:40:53.061Z,95498
2022-09-07T03:42:00.728Z,95498
2022-09-07T03:43:09.381Z,95502
2022-09-07T03:44:18.026Z,95503
2022-09-07T03:45:26.670Z,95502
2022-09-07T03:46:35.317Z,95498
2022-09-07T03:47:45.114Z,95501
2022-09-07T03:48:54.765Z,95499
2022-09-07T03:50:02.477Z,95495
2022-09-07T03:51:11.113Z,95499
2022-09-07T03:52:20.764Z,95499
2022-09-07T03:53:28.426Z,95495
2022-09-07T03:54:39.688Z,95495
2022-09-07T03:55:47.693Z,95493
2022-09-07T03:56:57.341Z,95492
2022-09-07T03:58:06.984Z,95494
2022-09-07T03:59:14.672Z,95494
2022-09-07T04:00:23.316Z,95495
2022-09-07T04:01:33.009Z,95497
2022-09-07T04:02:40.673Z,95503
2022-09-07T04:03:49.274Z,95503
2022-09-07T04:04:58.933Z,95499
2022-09-07T04:06:07.583Z,95504
2022-09-07T04:07:17.230Z,95504
2022-09-07T04:08:25.927Z,95502
2022-09-07T04:09:35.536Z,95505
2022-09-07T04:10:45.207Z,95508
2022-09-07T04:11:52.847Z,95503
2022-09-07T04:13:02.526Z,95506
2022-09-07T04:14:11.173Z,95505
2022-09-07T04:15:20.848Z,95504
2022-09-07T04:16:30.632Z,95499
2022-09-07T04:17:38.262Z,95499
2022-09-07T04:18:46.925Z,95501
2022-09-07T04:19:56.607Z,95495
2022-09-07T04:21:05.282Z,95497
2022-09-07T04:22:13.967Z,95499
2022-09-07T04:23:23.638Z,95498
2022-09-07T04:24:32.283Z,95506
2022-09-07T04:25:41.956Z,95507
2022-09-07T04:26:49.611Z,95504
2022-09-07T04:27:58.300Z,95504
2022-09-07T04:29:07.967Z,95501
2022-09-07T04:30:15.611Z,95498
2022-09-07T04:31:25.409Z,95503
2022-09-07T04:32:34.010Z,95504
2022-09-07T04:33:42.833Z,95509
2022-09-07T04:34:52.559Z,95509
2022-09-07T04:36:00.318Z,95507
2022-09-07T04:37:08.959Z,95509
2022-09-07T04:38:18.646Z,95509
2022-09-07T04:39:26.372Z,95510
2022-09-07T04:40:34.971Z,95514
2022-09-07T04:41:43.626Z,95513
2022-09-07T04:42:52.303Z,95516
2022-09-07T04:44:01.965Z,95516
2022-09-07T04:45:09.649Z,95511
2022-09-07T04:46:18.341Z,95510
2022-09-07T04:47:27.964Z,95511
2022-09-07T04:48:36.629Z,95509
2022-09-07T04:49:45.281Z,95509
2022-09-07T04:50:55.083Z,95510
2022-09-07T04:52:04.739Z,95508
2022-09-07T04:53:14.411Z,95507
2022-09-07T04:54:22.107Z,95512
2022-09-07T04:55:31.760Z,95514
2022-09-07T04:56:41.461Z,95507
2022-09-07T04:57:49.109Z,95507
2022-09-07T04:58:58.785Z,95508
2022-09-07T05:00:08.487Z,95509
2022-09-07T05:01:17.191Z,95509
2022-09-07T05:02:26.844Z,95509
2022-09-07T05:03:35.442Z,95508
2022-09-07T05:04:44.091Z,95503
2022-09-07T05:05:53.748Z,95513
2022-09-07T05:07:01.404Z,95512
2022-09-07T05:08:10.214Z,95512
2022-09-07T05:09:19.876Z,95517
2022-09-07T05:10:28.518Z,95516
2022-09-07T05:11:38.182Z,95516
2022-09-07T05:12:46.827Z,95516
2022-09-07T05:13:55.491Z,95517
2022-09-07T05:15:05.138Z,95513
2022-09-07T05:16:11.860Z,95516
2022-09-07T05:17:20.427Z,95515
2022-09-07T05:18:29.179Z,95514
2022-09-07T05:19:37.772Z,95520
2022-09-07T05:20:47.425Z,95518
2022-09-07T05:21:56.086Z,95521
2022-09-07T05:23:04.741Z,95521
2022-09-07T05:24:14.424Z,95522
2022-09-07T05:25:22.198Z,95526
2022-09-07T05:26:30.861Z,95521
2022-09-07T05:27:39.504Z,95524
2022-09-07T05:28:48.146Z,95519
2022-09-07T05:31:23.747Z,95525
2022-09-07T05:32:17.083Z,95523
2022-09-07T05:34:37.360Z,95524
2022-09-07T05:35:47.015Z,95523
2022-09-07T05:36:56.721Z,95522
2022-09-07T05:38:05.355Z,95521
2022-09-07T05:39:14.014Z,95525
2022-09-07T05:40:23.659Z,95523
2022-09-07T05:41:32.300Z,95528
2022-09-07T05:42:41.991Z,95532
2022-09-07T05:45:02.346Z,95534
2022-09-07T05:46:12.034Z,95539
2022-09-07T05:47:20.638Z,95541
2022-09-07T05:48:29.577Z,95541
2022-09-07T05:49:37.983Z,95549
2022-09-07T05:50:47.646Z,95550
2022-09-07T05:51:55.306Z,95551
2022-09-07T05:53:03.956Z,95551
2022-09-07T05:54:13.668Z,95555
2022-09-07T05:55:29.680Z,95555
2022-09-07T05:56:30.939Z,95555
2022-09-07T05:57:39.596Z,95558
2022-09-07T05:58:48.263Z,95564
2022-09-07T05:59:57.939Z,95564
2022-09-07T06:01:06.594Z,95570
2022-09-07T06:02:15.338Z,95574
2022-09-07T06:03:24.992Z,95575
2022-09-07T06:04:32.588Z,95576
2022-09-07T06:05:41.263Z,95585
2022-09-07T06:07:11.007Z,95591
2022-09-07T06:08:00.528Z,95590
2022-09-07T06:09:10.172Z,95589
2022-09-07T06:11:27.479Z,95581
2022-09-07T06:12:37.119Z,95574
2022-09-07T06:13:46.783Z,95571
2022-09-07T06:14:55.438Z,95578
2022-09-07T06:16:05.139Z,95585
2022-09-07T06:17:13.757Z,95587
2022-09-07T06:18:22.400Z,95586
2022-09-07T06:19:31.060Z,95582
2022-09-07T06:20:38.698Z,95581
2022-09-07T06:21:48.372Z,95587
2022-09-07T06:22:57.041Z,95589
2022-09-07T06:24:05.704Z,95588
2022-09-07T06:25:15.361Z,95588
2022-09-07T06:26:24.020Z,95594
2022-09-07T06:27:34.669Z,95590
2022-09-07T06:28:42.366Z,95593
2022-09-07T06:29:50.985Z,95592
2022-09-07T06:31:00.663Z,95600
2022-09-07T06:33:21.853Z,95596
2022-09-07T06:34:28.579Z,95602
2022-09-07T06:35:38.243Z,95603
2022-09-07T06:36:47.893Z,95606
2022-09-07T06:37:55.540Z,95598
2022-09-07T06:39:04.182Z,95600
2022-09-07T06:40:13.932Z,95600
2022-09-07T06:42:32.112Z,95599
2022-09-07T06:43:42.931Z,95595
2022-09-07T06:44:50.408Z,95600
2022-09-07T06:47:10.702Z,95599
2022-09-07T06:48:19.345Z,95600
2022-09-07T06:49:29.009Z,95597
2022-09-07T06:50:36.657Z,95600
2022-09-07T06:51:46.350Z,95600
2022-09-07T06:55:17.352Z,95598
2022-09-07T06:56:26.008Z,95598
2022-09-07T06:57:35.723Z,95603
2022-09-07T06:58:45.388Z,95602
2022-09-07T06:59:53.048Z,95602
2022-09-07T07:01:01.757Z,95603
2022-09-07T07:02:11.372Z,95599
2022-09-07T07:03:21.082Z,95599
2022-09-07T07:04:29.714Z,95602
2022-09-07T07:05:39.432Z,95606
2022-09-07T07:06:48.100Z,95600
2022-09-07T07:07:57.772Z,95607
2022-09-07T07:09:05.447Z,95612
2022-09-07T07:10:14.098Z,95608
2022-09-07T07:11:24.746Z,95607
2022-09-07T07:13:31.800Z,95610
2022-09-07T07:14:44.200Z,95612
2022-09-07T07:15:49.287Z,95615
2022-09-07T07:16:58.950Z,95618
2022-09-07T07:18:20.170Z,95624
2022-09-07T07:19:18.243Z,95620
2022-09-07T07:20:27.923Z,95619
2022-09-07T07:21:49.391Z,95619
2022-09-07T07:22:47.297Z,95613
2022-09-07T07:23:55.884Z,95618
2022-09-07T07:25:05.547Z,95610
2022-09-07T07:26:15.234Z,95610
2022-09-07T07:27:21.896Z,95616
2022-09-07T07:29:42.178Z,95619
2022-09-07T07:30:49.841Z,95624
2022-09-07T07:31:57.639Z,95624
2022-09-07T07:33:07.430Z,95624
2022-09-07T07:34:16.997Z,95623
2022-09-07T07:35:26.602Z,95627
2022-09-07T07:36:35.267Z,95629
2022-09-07T07:37:43.938Z,95627
2022-09-07T07:39:01.169Z,95629
2022-09-07T07:40:20.536Z,95625
2022-09-07T07:42:25.484Z,95635
2022-09-07T07:43:34.161Z,95632
2022-09-07T07:44:42.828Z,95630
2022-09-07T07:47:02.183Z,95632
2022-09-07T07:48:10.788Z,95631
2022-09-07T07:49:20.523Z,95631
2022-09-07T07:50:30.506Z,95633
2022-09-07T07:52:50.817Z,95632
2022-09-07T07:54:01.026Z,95628
2022-09-07T07:56:20.333Z,95631
2022-09-07T07:57:28.988Z,95632
2022-09-07T07:58:37.626Z,95633
2022-09-07T07:59:53.384Z,95637
2022-09-07T08:01:02.300Z,95630
2022-09-07T08:02:11.923Z,95634
2022-09-07T08:03:21.558Z,95633
2022-09-07T08:04:30.268Z,95632
2022-09-07T08:05:38.915Z,95631
2022-09-07T08:06:48.594Z,95634
2022-09-07T08:07:56.280Z,95632
2022-09-07T08:09:05.921Z,95629
2022-09-07T08:10:14.583Z,95629
2022-09-07T08:11:24.262Z,95634
2022-09-07T08:12:33.949Z,95630
2022-09-07T08:13:41.610Z,95626
2022-09-07T08:14:50.291Z,95623
2022-09-07T08:16:00.011Z,95623
2022-09-07T08:17:07.622Z,95617
2022-09-07T08:18:16.357Z,95616
2022-09-07T08:19:25.007Z,95618
2022-09-07T08:20:33.699Z,95620
2022-09-07T08:21:43.353Z,95621
2022-09-07T08:22:51.063Z,95620
2022-09-07T08:23:59.742Z,95629
2022-09-07T08:25:09.439Z,95627
2022-09-07T08:26:17.085Z,95630
2022-09-07T08:27:25.781Z,95630
2022-09-07T08:28:34.447Z,95634
2022-09-07T08:29:44.137Z,95636
2022-09-07T08:30:53.821Z,95632
2022-09-07T08:32:01.565Z,95632
2022-09-07T08:33:09.161Z,95632
2022-09-07T08:34:19.819Z,95627
2022-09-07T08:35:27.547Z,95624
2022-09-07T08:36:37.273Z,95627
2022-09-07T08:37:46.958Z,95619
2022-09-07T08:38:56.607Z,95619
2022-09-07T08:40:06.367Z,95622
2022-09-07T08:41:15.006Z,95620
2022-09-07T08:42:23.681Z,95619
2022-09-07T08:43:33.397Z,95615
2022-09-07T08:44:42.063Z,95620
2022-09-07T08:45:50.736Z,95615
2022-09-07T08:46:59.698Z,95618
2022-09-07T08:48:08.285Z,95618
2022-09-07T08:49:17.957Z,95622
2022-09-07T08:50:25.615Z,95615
2022-09-07T08:51:35.345Z,95618
2022-09-07T08:52:45.066Z,95626
2022-09-07T08:53:54.778Z,95628
2022-09-07T08:55:03.408Z,95625
2022-09-07T08:56:12.105Z,95623
2022-09-07T08:57:21.080Z,95626
2022-09-07T08:58:48.561Z,95627
2022-09-07T08:59:41.267Z,95622
2022-09-07T09:00:50.240Z,95617
2022-09-07T09:04:22.789Z,95609
2022-09-07T09:05:31.481Z,95608
2022-09-07T09:06:39.133Z,95606
2022-09-07T09:07:48.755Z,95605
2022-09-07T09:08:58.399Z,95608
2022-09-07T09:10:08.095Z,95613
2022-09-07T09:11:17.757Z,95609
2022-09-07T09:12:25.466Z,95608
2022-09-07T09:13:35.116Z,95608
2022-09-07T09:14:43.790Z,95610
2022-09-07T09:15:53.552Z,95611
2022-09-07T09:17:03.202Z,95615
2022-09-07T09:18:13.920Z,95606
2022-09-07T09:19:20.511Z,95605
2022-09-07T09:20:30.282Z,95606
2022-09-07T09:21:40.086Z,95606
2022-09-07T09:22:48.745Z,95612
2022-09-07T09:23:57.439Z,95608
2022-09-07T09:25:07.105Z,95606
2022-09-07T09:26:16.787Z,95606
2022-09-07T09:27:26.490Z,95601
2022-09-07T09:28:35.417Z,95605
2022-09-07T09:29:44.849Z,95604
2022-09-07T09:30:52.610Z,95601
2022-09-07T09:32:01.184Z,95601
2022-09-07T09:33:09.943Z,95607
2022-09-07T09:34:22.287Z,95595
2022-09-07T09:35:30.256Z,95596
2022-09-07T09:36:37.936Z,95594
2022-09-07T09:37:46.594Z,95593
2022-09-07T09:38:54.296Z,95592
2022-09-07T09:40:03.991Z,95592
2022-09-07T09:41:13.639Z,95592
2022-09-07T09:42:22.327Z,95597
2022-09-07T09:43:32.024Z,95589
2022-09-07T09:44:41.721Z,95587
2022-09-07T09:47:30.963Z,95588
2022-09-07T09:48:11.824Z,95587
2022-09-07T09:49:20.483Z,95592
2022-09-07T09:52:52.065Z,95585
2022-09-07T09:54:00.133Z,95583
2022-09-07T09:55:32.912Z,95578
2022-09-07T09:56:19.494Z,95579
2022-09-07T09:57:27.178Z,95580
2022-09-07T10:00:07.123Z,95573
2022-09-07T10:04:30.132Z,95569
2022-09-07T10:05:39.827Z,95573
2022-09-07T10:06:49.487Z,95569
2022-09-07T10:07:58.270Z,95582
2022-09-07T10:09:07.984Z,95584
2022-09-07T10:10:16.685Z,95578
2022-09-07T10:12:04.929Z,95572
2022-09-07T10:12:37.084Z,95574
2022-09-07T10:13:46.803Z,95574
2022-09-07T10:14:55.393Z,95580
2022-09-07T10:16:04.113Z,95581
2022-09-07T10:17:13.791Z,95572
2022-09-07T10:18:23.490Z,95576
2022-09-07T10:19:33.195Z,95570
2022-09-07T10:20:42.913Z,95576
2022-09-07T10:21:51.597Z,95565
2022-09-07T10:23:00.293Z,95561
2022-09-07T10:24:09.978Z,95573
2022-09-07T10:25:17.892Z,95571
2022-09-07T10:26:27.590Z,95578
2022-09-07T10:27:37.254Z,95569
2022-09-07T10:29:55.574Z,95578
2022-09-07T10:31:04.306Z,95574
2022-09-07T10:32:13.934Z,95579
2022-09-07T10:33:23.605Z,95582
2022-09-07T10:34:31.291Z,95576
2022-09-07T10:35:39.950Z,95573
2022-09-07T10:36:49.669Z,95579
2022-09-07T10:37:59.345Z,95579
2022-09-07T10:39:09.031Z,95582
2022-09-07T10:40:17.755Z,95573
2022-09-07T10:41:26.459Z,95577
2022-09-07T10:42:36.224Z,95580
2022-09-07T10:43:46.856Z,95572
2022-09-07T10:44:55.656Z,95571
2022-09-07T10:46:05.325Z,95562
2022-09-07T10:47:16.620Z,95567
2022-09-07T10:48:23.626Z,95565
2022-09-07T10:49:32.287Z,95566
2022-09-07T10:50:41.015Z,95565
2022-09-07T10:51:50.695Z,95569
2022-09-07T10:53:00.381Z,95562
2022-09-07T10:55:21.678Z,95560
2022-09-07T10:56:29.359Z,95561
2022-09-07T10:57:39.022Z,95556
2022-09-07T10:59:04.460Z,95566
2022-09-07T11:00:14.672Z,95561
2022-09-07T11:01:10.100Z,95550
2022-09-07T11:02:18.761Z,95545
2022-09-07T11:03:26.790Z,95545
2022-09-07T11:04:36.056Z,95546
2022-09-07T11:05:43.744Z,95545
2022-09-07T11:06:52.417Z,95539
2022-09-07T11:08:01.152Z,95540
2022-09-07T11:09:17.984Z,95536
2022-09-07T11:10:20.520Z,95535
2022-09-07T11:12:37.961Z,95531
2022-09-07T11:14:09.241Z,95526
2022-09-07T11:14:58.343Z,95523
2022-09-07T11:16:07.060Z,95526
2022-09-07T11:17:17.669Z,95527
2022-09-07T11:18:26.320Z,95525
2022-09-07T11:19:37.172Z,95527
2022-09-07T11:20:45.641Z,95527
2022-09-07T11:21:56.649Z,95523
2022-09-07T11:23:06.016Z,95523
2022-09-07T11:24:15.680Z,95524
2022-09-07T11:25:32.603Z,95518
2022-09-07T11:26:34.990Z,95517
2022-09-07T11:27:44.638Z,95515
2022-09-07T11:30:05.243Z,95509
2022-09-07T11:31:14.960Z,95505
2022-09-07T11:32:24.590Z,95509
2022-09-07T11:33:33.244Z,95506
2022-09-07T11:34:41.958Z,95509
2022-09-07T11:35:51.614Z,95507
2022-09-07T11:37:00.276Z,95506
2022-09-07T11:38:08.958Z,95502
2022-09-07T11:39:18.618Z,95499
2022-09-07T11:40:28.302Z,95503
2022-09-07T11:41:36.986Z,95501
2022-09-07T11:42:45.647Z,95499
2022-09-07T11:43:55.334Z,95499
2022-09-07T11:45:04.015Z,95500
2022-09-07T11:46:13.808Z,95499
2022-09-07T11:47:23.437Z,95494
2022-09-07T11:48:33.350Z,95494
2022-09-07T11:49:44.486Z,95491
2022-09-07T11:50:53.462Z,95501
2022-09-07T11:52:06.155Z,95496
2022-09-07T11:53:12.791Z,95495
2022-09-07T11:54:21.473Z,95496
2022-09-07T11:55:30.134Z,95497
2022-09-07T11:56:38.790Z,95496
2022-09-07T11:57:51.415Z,95499
2022-09-07T11:58:59.121Z,95496
2022-09-07T12:00:07.793Z,95495
2022-09-07T12:01:17.538Z,95494
2022-09-07T12:02:42.282Z,95493
2022-09-07T12:03:37.918Z,95496
2022-09-07T12:04:47.506Z,95497
2022-09-07T12:05:57.115Z,95497
2022-09-07T12:07:05.788Z,95498
2022-09-07T12:08:15.486Z,95488
2022-09-07T12:09:24.217Z,95491
2022-09-07T12:10:32.909Z,95488
2022-09-07T12:11:42.587Z,95486
2022-09-07T12:12:50.241Z,95484
2022-09-07T12:13:58.950Z,95482
2022-09-07T12:15:07.740Z,95485
2022-09-07T12:16:16.497Z,95482
2022-09-07T12:17:26.132Z,95477
2022-09-07T12:18:35.779Z,95476
2022-09-07T12:19:44.445Z,95473
2022-09-07T12:20:54.137Z,95478
2022-09-07T12:22:02.822Z,95476
2022-09-07T12:23:12.550Z,95476
2022-09-07T12:24:21.279Z,95475
2022-09-07T12:25:29.927Z,95478
2022-09-07T12:26:39.654Z,95473
2022-09-07T12:27:47.333Z,95476
2022-09-07T12:28:57.002Z,95473
2022-09-07T12:30:06.695Z,95475
2022-09-07T12:31:14.345Z,95475
2022-09-07T12:33:34.838Z,95474
2022-09-07T12:34:44.481Z,95475
2022-09-07T12:35:54.184Z,95472
2022-09-07T12:37:02.837Z,95475
2022-09-07T12:38:12.523Z,95470
2022-09-07T12:39:22.188Z,95473
2022-09-07T12:40:29.907Z,95467
2022-09-07T12:41:38.562Z,95466
2022-09-07T12:42:48.209Z,95459
2022-09-07T12:43:56.930Z,95464
2022-09-07T12:45:06.590Z,95457
2022-09-07T12:46:14.367Z,95459
2022-09-07T12:47:23.965Z,95461
2022-09-07T12:48:33.628Z,95458
2022-09-07T12:49:42.424Z,95456
2022-09-07T12:50:52.065Z,95454
2022-09-07T12:52:05.178Z,95456
2022-09-07T12:53:11.389Z,95452
2022-09-07T12:54:21.059Z,95450
2022-09-07T12:55:30.262Z,95453
2022-09-07T12:56:39.801Z,95443
2022-09-07T12:57:49.485Z,95452
2022-09-07T12:58:58.139Z,95447
2022-09-07T13:00:05.819Z,95446
2022-09-07T13:01:14.793Z,95450
2022-09-07T13:02:23.314Z,95446
2022-09-07T13:04:43.541Z,95446
2022-09-07T13:05:53.343Z,95447
2022-09-07T13:07:03.410Z,95440
2022-09-07T13:08:11.649Z,95437
2022-09-07T13:09:19.316Z,95429
2022-09-07T13:10:28.985Z,95440
2022-09-07T13:11:37.677Z,95437
2022-09-07T13:12:56.982Z,95434
2022-09-07T13:14:05.283Z,95427
2022-09-07T13:15:06.675Z,95428
2022-09-07T13:16:17.767Z,95423
2022-09-07T13:17:26.361Z,95419
2022-09-07T13:18:34.791Z,95420
2022-09-07T13:19:43.459Z,95416
2022-09-07T13:20:53.639Z,95421
2022-09-07T13:22:02.818Z,95417
2022-09-07T13:23:12.462Z,95418
2022-09-07T13:25:32.829Z,95417
2022-09-07T13:26:40.534Z,95414
2022-09-07T13:27:50.374Z,95405
2022-09-07T13:28:58.823Z,95409
2022-09-07T13:30:08.528Z,95405
2022-09-07T13:31:18.299Z,95408
2022-09-07T13:33:37.551Z,95408
2022-09-07T13:34:47.233Z,95413
2022-09-07T13:35:56.026Z,95409
2022-09-07T13:37:05.770Z,95412
2022-09-07T13:38:15.385Z,95414
2022-09-07T13:39:24.058Z,95414
2022-09-07T13:40:32.727Z,95413
2022-09-07T13:41:41.425Z,95411
2022-09-07T13:42:51.169Z,95405
2022-09-07T13:43:58.858Z,95406
2022-09-07T13:45:07.513Z,95412
2022-09-07T13:46:17.235Z,95405
2022-09-07T13:47:24.894Z,95397
2022-09-07T13:48:33.575Z,95398
2022-09-07T13:49:42.247Z,95392
2022-09-07T13:50:51.951Z,95389
2022-09-07T13:52:00.645Z,95390
2022-09-07T13:53:10.523Z,95389
2022-09-07T13:54:20.190Z,95387
2022-09-07T13:55:29.870Z,95380
2022-09-07T13:56:38.580Z,95380
2022-09-07T13:57:48.282Z,95381
2022-09-07T13:58:57.964Z,95377
2022-09-07T14:00:07.653Z,95380
2022-09-07T14:01:17.392Z,95385
2022-09-07T14:02:26.137Z,95379
2022-09-07T14:03:34.671Z,95381
2022-09-07T14:04:44.415Z,95378
2022-09-07T14:05:53.052Z,95381
2022-09-07T14:07:01.847Z,95373
2022-09-07T14:08:11.569Z,95371
2022-09-07T14:09:21.313Z,95368
2022-09-07T14:10:30.992Z,95370
2022-09-07T14:11:39.685Z,95369
2022-09-07T14:12:48.315Z,95365
2022-09-07T14:13:57.976Z,95362
2022-09-07T14:15:09.045Z,95361
2022-09-07T14:16:15.366Z,95362
2022-09-07T14:17:25.011Z,95364
2022-09-07T14:18:33.668Z,95359
2022-09-07T14:19:43.344Z,95357
2022-09-07T14:20:52.011Z,95357
2022-09-07T14:22:00.822Z,95353
2022-09-07T14:23:10.525Z,95354
2022-09-07T14:24:20.222Z,95352
2022-09-07T14:25:30.144Z,95351
2022-09-07T14:26:40.526Z,95347
2022-09-07T14:27:49.193Z,95352
2022-09-07T14:28:58.867Z,95350
2022-09-07T14:30:06.537Z,95350
2022-09-07T14:31:15.330Z,95349
2022-09-07T14:32:24.888Z,95346
2022-09-07T14:33:33.704Z,95350
2022-09-07T14:34:43.232Z,95353
2022-09-07T14:35:51.926Z,95348
2022-09-07T14:37:01.669Z,95351
2022-09-07T14:38:11.249Z,95349
2022-09-07T14:39:19.258Z,95352
2022-09-07T14:40:27.674Z,95349
2022-09-07T14:41:37.361Z,95345
2022-09-07T14:42:47.001Z,95346
2022-09-07T14:43:55.664Z,95348
2022-09-07T14:45:04.343Z,95342
2022-09-07T14:46:14.078Z,95347
2022-09-07T14:47:23.729Z,95350
2022-09-07T14:48:34.454Z,95355
2022-09-07T14:49:41.574Z,95349
2022-09-07T14:51:00.964Z,95354
2022-09-07T14:52:01.328Z,95355
2022-09-07T14:54:21.628Z,95351
2022-09-07T14:55:31.301Z,95348
2022-09-07T14:56:41.015Z,95348
2022-09-07T14:57:50.662Z,95347
2022-09-07T14:58:59.337Z,95345
2022-09-07T15:00:09.008Z,95342
2022-09-07T15:02:26.519Z,95341
2022-09-07T15:03:35.068Z,95334
2022-09-07T15:04:43.719Z,95330
2022-09-07T15:05:54.706Z,95331
2022-09-07T15:07:03.493Z,95328
2022-09-07T15:08:10.823Z,95322
2022-09-07T15:09:20.502Z,95326
2022-09-07T15:10:30.185Z,95330
2022-09-07T15:11:38.948Z,95324
2022-09-07T15:12:48.846Z,95329
2022-09-07T15:13:58.500Z,95330
2022-09-07T15:15:08.186Z,95326
2022-09-07T15:16:16.918Z,95329
2022-09-07T15:18:37.173Z,95327
2022-09-07T15:19:45.863Z,95318
2022-09-07T15:20:54.517Z,95321
2022-09-07T15:22:03.254Z,95320
2022-09-07T15:23:11.887Z,95319
2022-09-07T15:24:21.568Z,95318
2022-09-07T15:25:29.383Z,95315
2022-09-07T15:27:49.674Z,95321
2022-09-07T15:29:12.911Z,95316
2022-09-07T15:30:07.981Z,95312
2022-09-07T15:32:27.315Z,95310